createdAt,value
2023-05-10T00:02:51.241Z,3.33
2023-05-10T00:05:54.734Z,2.90
2023-05-10T00:08:58.049Z,2.90
2023-05-10T00:12:01.616Z,2.60
2023-05-10T00:15:05.190Z,2.90
2023-05-10T00:18:08.869Z,2.60
2023-05-10T00:21:11.990Z,3.25
2023-05-10T00:24:16.811Z,3.28
2023-05-10T00:27:20.167Z,3.30
2023-05-10T00:30:24.601Z,3.20
2023-05-10T00:33:28.917Z,3.30
2023-05-10T00:36:32.631Z,3.65
2023-05-10T00:39:36.034Z,3.00
2023-05-10T00:42:39.391Z,3.60
2023-05-10T00:45:43.602Z,3.90
2023-05-10T00:48:47.199Z,3.08
2023-05-10T00:51:51.506Z,3.60
2023-05-10T00:54:55.798Z,3.12
2023-05-10T00:57:59.059Z,3.50
2023-05-10T01:01:02.932Z,3.20
2023-05-10T01:04:06.596Z,3.33
2023-05-10T01:07:10.040Z,3.40
2023-05-10T01:10:14.269Z,3.53
2023-05-10T01:13:34.990Z,3.50
2023-05-10T01:16:41.058Z,3.17
2023-05-10T01:19:45.864Z,2.95
2023-05-10T01:23:31.662Z,3.42
2023-05-10T01:26:54.995Z,3.40
2023-05-10T01:30:15.624Z,3.30
2023-05-10T01:33:22.022Z,3.30
2023-05-10T01:36:30.621Z,3.00
2023-05-10T01:39:51.171Z,3.27
2023-05-10T01:43:03.275Z,3.20
2023-05-10T01:46:15.729Z,3.37
2023-05-10T01:49:27.293Z,3.20
2023-05-10T01:52:38.843Z,3.40
2023-05-10T01:55:48.754Z,3.10
2023-05-10T01:58:54.821Z,3.30
2023-05-10T02:02:01.078Z,2.87
2023-05-10T02:05:06.672Z,3.10
2023-05-10T02:08:10.900Z,3.37
2023-05-10T02:11:15.271Z,3.50
2023-05-10T02:14:20.026Z,3.20
2023-05-10T02:17:25.945Z,3.33
2023-05-10T02:20:31.999Z,3.55
2023-05-10T02:23:36.896Z,3.20
2023-05-10T02:26:41.755Z,3.37
2023-05-10T02:29:45.837Z,3.20
2023-05-10T02:32:51.154Z,3.20
2023-05-10T02:35:55.942Z,3.60
2023-05-10T02:39:02.232Z,3.17
2023-05-10T02:42:06.479Z,3.28
2023-05-10T02:45:14.368Z,3.57
2023-05-10T02:48:19.112Z,3.47
2023-05-10T02:51:26.619Z,3.72
2023-05-10T02:54:34.378Z,3.25
2023-05-10T02:57:43.262Z,3.40
2023-05-10T03:00:47.607Z,2.90
2023-05-10T03:03:50.675Z,3.62
2023-05-10T03:06:54.409Z,3.70
2023-05-10T03:09:57.769Z,3.62
2023-05-10T03:13:21.481Z,3.80
2023-05-10T03:16:48.420Z,4.28
2023-05-10T03:19:59.486Z,4.22
2023-05-10T03:23:13.216Z,3.72
2023-05-10T03:26:29.539Z,3.72
2023-05-10T03:29:34.368Z,4.00
2023-05-10T03:32:38.791Z,4.15
2023-05-10T03:35:42.080Z,4.30
2023-05-10T03:38:48.141Z,4.60
2023-05-10T03:41:51.426Z,4.32
2023-05-10T03:44:54.949Z,4.50
2023-05-10T03:47:59.107Z,4.25
2023-05-10T03:51:03.170Z,4.35
2023-05-10T03:54:06.607Z,4.75
2023-05-10T03:57:10.739Z,4.65
2023-05-10T04:00:16.573Z,4.55
2023-05-10T04:03:27.005Z,4.63
2023-05-10T04:06:31.700Z,4.78
2023-05-10T04:09:36.376Z,4.93
2023-05-10T04:12:39.414Z,4.50
2023-05-10T04:15:44.849Z,4.60
2023-05-10T04:18:49.755Z,4.32
2023-05-10T04:21:53.142Z,5.00
2023-05-10T04:24:56.198Z,4.70
2023-05-10T04:27:59.693Z,4.43
2023-05-10T04:31:08.320Z,5.22
2023-05-10T04:34:11.581Z,4.80
2023-05-10T04:37:14.665Z,4.93
2023-05-10T04:40:18.289Z,4.32
2023-05-10T04:43:21.894Z,4.20
2023-05-10T04:46:25.309Z,4.70
2023-05-10T04:49:28.449Z,3.90
2023-05-10T04:52:32.003Z,4.50
2023-05-10T04:55:35.073Z,4.00
2023-05-10T04:58:38.475Z,4.62
2023-05-10T05:01:41.639Z,4.18
2023-05-10T05:04:45.188Z,4.85
2023-05-10T05:07:48.326Z,4.80
2023-05-10T05:10:52.053Z,5.05
2023-05-10T05:13:55.528Z,5.18
2023-05-10T05:16:58.935Z,4.85
2023-05-10T05:20:02.149Z,4.40
2023-05-10T05:23:05.572Z,4.53
2023-05-10T05:26:08.749Z,4.45
2023-05-10T05:29:12.128Z,4.55
2023-05-10T05:32:15.103Z,4.10
2023-05-10T05:35:19.064Z,3.97
2023-05-10T05:38:22.293Z,4.47
2023-05-10T05:41:25.738Z,4.40
2023-05-10T05:44:30.003Z,4.70
2023-05-10T05:47:34.590Z,4.62
2023-05-10T05:50:37.570Z,4.10
2023-05-10T05:53:42.132Z,4.28
2023-05-10T05:56:45.533Z,4.07
2023-05-10T05:59:48.934Z,4.13
2023-05-10T06:02:51.851Z,3.80
2023-05-10T06:05:55.332Z,4.60
2023-05-10T06:08:58.462Z,4.00
2023-05-10T06:12:02.739Z,4.10
2023-05-10T06:15:06.204Z,4.23
2023-05-10T06:18:09.735Z,4.00
2023-05-10T06:21:12.970Z,4.47
2023-05-10T06:24:16.684Z,3.67
2023-05-10T06:27:19.697Z,4.03
2023-05-10T06:30:28.275Z,4.40
2023-05-10T06:33:31.341Z,3.73
2023-05-10T06:36:35.139Z,3.95
2023-05-10T06:39:39.526Z,3.80
2023-05-10T06:42:43.100Z,3.85
2023-05-10T06:45:50.523Z,3.50
2023-05-10T06:48:53.856Z,4.03
2023-05-10T06:51:57.888Z,3.90
2023-05-10T06:55:21.080Z,3.62
2023-05-10T06:58:24.444Z,3.72
2023-05-10T07:01:27.945Z,4.00
2023-05-10T07:04:30.966Z,4.50
2023-05-10T07:07:34.273Z,3.65
2023-05-10T07:10:37.530Z,4.00
2023-05-10T07:13:45.204Z,3.55
2023-05-10T07:16:50.975Z,4.03
2023-05-10T07:19:54.366Z,3.70
2023-05-10T07:22:58.603Z,3.53
2023-05-10T07:26:03.552Z,3.45
2023-05-10T07:29:06.672Z,3.65
2023-05-10T07:32:11.238Z,3.90
2023-05-10T07:35:14.587Z,3.70
2023-05-10T07:38:18.578Z,3.33
2023-05-10T07:41:22.249Z,3.20
2023-05-10T07:44:25.678Z,3.28
2023-05-10T07:47:28.838Z,3.43
2023-05-10T07:50:32.234Z,3.27
2023-05-10T07:53:35.218Z,3.25
2023-05-10T07:56:38.543Z,3.62
2023-05-10T07:59:41.785Z,3.53
2023-05-10T08:02:45.678Z,3.47
2023-05-10T08:05:49.223Z,3.63
2023-05-10T08:08:53.317Z,3.12
2023-05-10T08:11:57.622Z,3.30
2023-05-10T08:15:01.096Z,3.62
2023-05-10T08:18:05.486Z,3.47
2023-05-10T08:21:10.202Z,4.13
2023-05-10T08:24:13.822Z,3.60
2023-05-10T08:27:16.960Z,3.67
2023-05-10T08:30:20.900Z,3.65
2023-05-10T08:33:24.005Z,3.33
2023-05-10T08:36:27.607Z,3.40
2023-05-10T08:39:31.022Z,3.30
2023-05-10T08:42:37.356Z,3.42
2023-05-10T08:45:46.565Z,3.67
2023-05-10T08:48:55.294Z,3.30
2023-05-10T08:52:00.896Z,3.30
2023-05-10T08:55:04.380Z,3.50
2023-05-10T08:58:07.875Z,3.60
2023-05-10T09:01:11.371Z,3.22
2023-05-10T09:04:14.765Z,3.13
2023-05-10T09:07:18.587Z,3.80
2023-05-10T09:10:22.782Z,3.30
2023-05-10T09:13:27.232Z,3.10
2023-05-10T09:16:30.510Z,3.22
2023-05-10T09:19:33.826Z,3.00
2023-05-10T09:22:37.382Z,3.53
2023-05-10T09:25:43.516Z,3.03
2023-05-10T09:28:58.846Z,3.05
2023-05-10T09:32:02.242Z,2.85
2023-05-10T09:35:13.420Z,2.87
2023-05-10T09:38:17.381Z,2.80
2023-05-10T09:41:22.860Z,2.78
2023-05-10T09:44:27.467Z,2.67
2023-05-10T09:47:32.808Z,2.85
2023-05-10T09:50:36.276Z,2.60
2023-05-10T09:53:39.346Z,2.40
2023-05-10T09:56:43.249Z,2.75
2023-05-10T09:59:46.359Z,2.70
2023-05-10T10:02:57.379Z,2.50
2023-05-10T10:06:01.490Z,3.33
2023-05-10T10:09:05.389Z,2.90
2023-05-10T10:12:11.198Z,2.65
2023-05-10T10:15:16.617Z,2.67
2023-05-10T10:18:24.638Z,2.78
2023-05-10T10:21:28.148Z,2.53
2023-05-10T10:24:31.452Z,3.37
2023-05-10T10:27:52.801Z,2.78
2023-05-10T10:30:57.512Z,2.65
2023-05-10T10:34:13.071Z,2.50
2023-05-10T10:37:18.160Z,2.63
2023-05-10T10:40:34.611Z,2.50
2023-05-10T10:43:38.514Z,2.40
2023-05-10T10:47:01.018Z,2.42
2023-05-10T10:50:06.167Z,2.50
2023-05-10T10:53:13.236Z,2.20
2023-05-10T10:56:16.988Z,2.70
2023-05-10T10:59:28.280Z,2.05
2023-05-10T11:02:43.276Z,1.98
2023-05-10T11:05:47.994Z,2.10
2023-05-10T11:08:53.805Z,2.30
2023-05-10T11:11:56.959Z,2.50
2023-05-10T11:15:00.743Z,2.28
2023-05-10T11:18:20.115Z,2.30
2023-05-10T11:21:23.802Z,1.90
2023-05-10T11:24:29.274Z,2.00
2023-05-10T11:27:34.258Z,2.40
2023-05-10T11:30:40.852Z,1.90
2023-05-10T11:33:48.870Z,1.90
2023-05-10T11:36:54.942Z,1.83
2023-05-10T11:39:58.298Z,2.07
2023-05-10T11:43:01.620Z,2.03
2023-05-10T11:46:10.819Z,1.92
2023-05-10T11:49:14.506Z,1.77
2023-05-10T11:52:20.753Z,2.00
2023-05-10T11:55:25.376Z,1.90
2023-05-10T11:58:28.829Z,2.30
2023-05-10T12:01:32.544Z,2.20
2023-05-10T12:04:35.984Z,2.03
2023-05-10T12:07:38.993Z,2.05
2023-05-10T12:10:42.952Z,2.00
2023-05-10T12:13:51.013Z,2.20
2023-05-10T12:16:54.514Z,2.37
2023-05-10T12:20:19.592Z,1.90
2023-05-10T12:23:23.195Z,1.52
2023-05-10T12:26:30.478Z,2.13
2023-05-10T12:29:33.890Z,2.03
2023-05-10T12:32:45.091Z,2.00
2023-05-10T12:35:54.237Z,2.10
2023-05-10T12:39:03.987Z,1.95
2023-05-10T12:42:08.567Z,1.90
2023-05-10T12:45:12.419Z,1.80
2023-05-10T12:48:16.885Z,1.92
2023-05-10T12:51:23.041Z,2.28
2023-05-10T12:54:27.593Z,3.03
2023-05-10T12:57:30.775Z,1.97
2023-05-10T13:00:34.311Z,1.70
2023-05-10T13:03:37.441Z,1.90
2023-05-10T13:06:40.994Z,2.05
2023-05-10T13:09:44.449Z,1.95
2023-05-10T13:12:47.796Z,1.80
2023-05-10T13:15:51.188Z,1.70
2023-05-10T13:18:54.490Z,3.45
2023-05-10T13:21:57.518Z,1.80
2023-05-10T13:25:00.680Z,1.90
2023-05-10T13:28:03.880Z,1.80
2023-05-10T13:31:09.075Z,1.50
2023-05-10T13:34:13.321Z,1.58
2023-05-10T13:37:16.649Z,1.58
2023-05-10T13:40:23.070Z,1.70
2023-05-10T13:43:26.879Z,1.50
2023-05-10T13:46:31.592Z,1.50
2023-05-10T13:49:35.189Z,1.87
2023-05-10T13:52:38.458Z,1.52
2023-05-10T13:55:42.900Z,1.58
2023-05-10T13:58:45.979Z,1.60
2023-05-10T14:01:49.372Z,1.50
2023-05-10T14:04:52.817Z,1.50
2023-05-10T14:07:55.913Z,1.45
2023-05-10T14:10:59.271Z,1.62
2023-05-10T14:14:02.401Z,1.60
2023-05-10T14:17:05.785Z,1.30
2023-05-10T14:20:09.555Z,1.52
2023-05-10T14:23:13.594Z,1.60
2023-05-10T14:26:18.094Z,1.70
2023-05-10T14:29:23.718Z,1.40
2023-05-10T14:32:29.439Z,1.50
2023-05-10T14:35:33.458Z,1.40
2023-05-10T14:38:36.854Z,1.17
2023-05-10T14:41:42.598Z,1.80
2023-05-10T14:44:45.486Z,1.30
2023-05-10T14:47:48.856Z,1.67
2023-05-10T14:50:53.600Z,1.80
2023-05-10T14:53:57.529Z,1.23
2023-05-10T14:57:01.425Z,1.45
2023-05-10T15:00:05.464Z,1.20
2023-05-10T15:03:08.922Z,1.37
2023-05-10T15:06:15.171Z,1.58
2023-05-10T15:09:18.255Z,1.52
2023-05-10T15:12:21.634Z,1.90
2023-05-10T15:15:24.702Z,1.47
2023-05-10T15:18:29.347Z,2.00
2023-05-10T15:21:38.685Z,1.65
2023-05-10T15:24:42.324Z,1.70
2023-05-10T15:27:45.356Z,1.70
2023-05-10T15:30:48.598Z,2.30
2023-05-10T15:33:51.758Z,2.40
2023-05-10T15:36:56.603Z,1.80
2023-05-10T15:40:04.762Z,1.35
2023-05-10T15:43:08.480Z,1.98
2023-05-10T15:46:11.624Z,2.10
2023-05-10T15:49:15.553Z,1.87
2023-05-10T15:52:21.155Z,2.50
2023-05-10T15:55:24.601Z,1.70
2023-05-10T15:58:27.785Z,7.05
2023-05-10T16:01:32.535Z,2.50
2023-05-10T16:04:36.244Z,5.50
2023-05-10T16:07:40.447Z,2.72
2023-05-10T16:10:43.902Z,2.00
2023-05-10T16:13:48.242Z,2.20
2023-05-10T16:16:51.738Z,5.73
2023-05-10T16:19:54.944Z,7.30
2023-05-10T16:23:03.465Z,3.12
2023-05-10T16:26:06.761Z,3.83
2023-05-10T16:29:10.284Z,2.47
2023-05-10T16:32:13.063Z,2.13
2023-05-10T16:35:16.968Z,2.60
2023-05-10T16:38:21.885Z,2.00
2023-05-10T16:41:25.303Z,2.80
2023-05-10T16:44:29.603Z,3.20
2023-05-10T16:47:33.763Z,2.90
2023-05-10T16:50:37.235Z,2.10
2023-05-10T16:53:40.907Z,3.47
2023-05-10T16:56:43.962Z,2.30
2023-05-10T16:59:47.529Z,2.03
2023-05-10T17:02:50.672Z,1.53
2023-05-10T17:05:54.483Z,2.20
2023-05-10T17:08:57.830Z,1.70
2023-05-10T17:12:03.333Z,1.83
2023-05-10T17:15:06.985Z,1.98
2023-05-10T17:18:10.684Z,1.77
2023-05-10T17:21:14.113Z,1.70
2023-05-10T17:24:17.550Z,1.92
2023-05-10T17:27:20.772Z,1.90
2023-05-10T17:30:27.634Z,2.00
2023-05-10T17:33:30.793Z,1.90
2023-05-10T17:36:35.012Z,2.07
2023-05-10T17:39:39.892Z,1.80
2023-05-10T17:42:43.426Z,1.98
2023-05-10T17:45:51.389Z,1.92
2023-05-10T17:48:54.975Z,1.90
2023-05-10T17:51:58.861Z,1.90
2023-05-10T17:55:02.542Z,1.37
2023-05-10T17:58:05.731Z,1.95
2023-05-10T18:01:09.302Z,1.85
2023-05-10T18:04:13.266Z,1.57
2023-05-10T18:07:16.751Z,2.00
2023-05-10T18:10:20.582Z,2.00
2023-05-10T18:13:24.678Z,1.73
2023-05-10T18:16:28.554Z,1.90
2023-05-10T18:19:32.057Z,1.90
2023-05-10T18:22:35.883Z,1.63
2023-05-10T18:25:39.425Z,1.90
2023-05-10T18:28:43.219Z,1.98
2023-05-10T18:31:47.545Z,1.80
2023-05-10T18:34:53.224Z,1.87
2023-05-10T18:37:58.225Z,2.00
2023-05-10T18:41:03.146Z,2.20
2023-05-10T18:44:09.762Z,1.95
2023-05-10T18:47:15.150Z,1.92
2023-05-10T18:50:20.412Z,2.20
2023-05-10T18:53:24.777Z,2.07
2023-05-10T18:56:29.813Z,2.37
2023-05-10T18:59:36.342Z,2.50
2023-05-10T19:02:42.021Z,2.53
2023-05-10T19:05:49.629Z,2.00
2023-05-10T19:08:55.195Z,1.80
2023-05-10T19:12:01.142Z,2.28
2023-05-10T19:15:07.559Z,2.42
2023-05-10T19:18:15.452Z,2.35
2023-05-10T19:21:25.252Z,2.53
2023-05-10T19:24:31.951Z,2.73
2023-05-10T19:27:39.906Z,2.28
2023-05-10T19:30:45.759Z,2.20
2023-05-10T19:33:49.871Z,2.75
2023-05-10T19:36:54.891Z,2.60
2023-05-10T19:39:59.750Z,2.60
2023-05-10T19:43:04.390Z,2.58
2023-05-10T19:46:09.871Z,2.45
2023-05-10T19:49:14.913Z,2.45
2023-05-10T19:52:19.203Z,2.37
2023-05-10T19:55:30.169Z,2.00
2023-05-10T19:58:34.873Z,2.20
2023-05-10T20:01:39.905Z,2.17
2023-05-10T20:04:44.150Z,1.98
2023-05-10T20:07:49.570Z,2.50
2023-05-10T20:10:56.070Z,2.40
2023-05-10T20:14:00.341Z,2.40
2023-05-10T20:17:05.881Z,2.17
2023-05-10T20:20:09.599Z,2.40
2023-05-10T20:23:15.376Z,1.60
2023-05-10T20:26:19.312Z,2.40
2023-05-10T20:29:23.526Z,1.70
2023-05-10T20:32:28.381Z,2.17
2023-05-10T20:35:34.664Z,2.80
2023-05-10T20:38:39.528Z,2.07
2023-05-10T20:41:43.906Z,2.40
2023-05-10T20:44:48.007Z,2.33
2023-05-10T20:47:53.769Z,2.50
2023-05-10T20:50:59.070Z,2.45
2023-05-10T20:54:04.560Z,2.57
2023-05-10T20:57:09.268Z,2.90
2023-05-10T21:00:15.216Z,2.22
2023-05-10T21:03:18.538Z,2.22
2023-05-10T21:06:22.912Z,2.22
2023-05-10T21:09:26.102Z,2.40
2023-05-10T21:12:29.752Z,2.50
2023-05-10T21:15:33.069Z,2.40
2023-05-10T21:18:36.743Z,1.95
2023-05-10T21:21:40.218Z,1.98
2023-05-10T21:24:44.145Z,1.90
2023-05-10T21:27:47.454Z,2.17
2023-05-10T21:30:51.902Z,2.28
2023-05-10T21:33:55.063Z,2.50
2023-05-10T21:36:58.422Z,2.40
2023-05-10T21:40:01.996Z,2.60
2023-05-10T21:43:06.307Z,2.40
2023-05-10T21:46:09.762Z,2.58
2023-05-10T21:49:14.412Z,2.50
2023-05-10T21:52:17.547Z,2.92
2023-05-10T21:55:22.157Z,2.43
2023-05-10T21:58:25.326Z,2.33
2023-05-10T22:01:28.888Z,2.50
2023-05-10T22:04:32.428Z,2.30
2023-05-10T22:07:35.495Z,2.62
2023-05-10T22:10:38.983Z,2.10
2023-05-10T22:13:42.369Z,2.60
2023-05-10T22:16:45.852Z,2.20
2023-05-10T22:19:48.947Z,2.53
2023-05-10T22:22:54.946Z,2.22
2023-05-10T22:26:02.712Z,2.30
2023-05-10T22:29:06.140Z,2.30
2023-05-10T22:32:09.298Z,2.47
2023-05-10T22:35:12.981Z,2.25
2023-05-10T22:38:16.205Z,2.20
2023-05-10T22:41:19.526Z,2.30
2023-05-10T22:44:22.609Z,2.70
2023-05-10T22:47:26.578Z,2.33
2023-05-10T22:50:30.377Z,2.30
2023-05-10T22:53:33.769Z,2.92
2023-05-10T22:56:37.155Z,2.70
2023-05-10T22:59:42.504Z,2.47
2023-05-10T23:02:45.572Z,2.72
2023-05-10T23:05:49.641Z,2.65
2023-05-10T23:08:52.836Z,2.50
2023-05-10T23:11:56.309Z,2.40
2023-05-10T23:14:59.746Z,2.53
2023-05-10T23:18:04.652Z,2.55
2023-05-10T23:21:07.821Z,2.40
2023-05-10T23:24:11.796Z,2.50
2023-05-10T23:27:15.123Z,2.50
2023-05-10T23:30:19.051Z,2.20
2023-05-10T23:33:23.729Z,2.90
2023-05-10T23:36:27.464Z,2.40
2023-05-10T23:39:31.197Z,2.25
2023-05-10T23:42:34.593Z,2.60
2023-05-10T23:45:37.812Z,2.70
2023-05-10T23:48:41.488Z,2.60
2023-05-10T23:51:44.843Z,2.30
2023-05-10T23:54:48.554Z,2.40
2023-05-10T23:57:51.746Z,2.43
